sensor_id;sensor_type;location;lat;lon;timestamp;P1;durP1;ratioP1;P2;durP2;ratioP2
1613;SDS011;800;48.824;9.346;2023-07-24T00:00:13;8.33;;;6.53;;
1613;SDS011;800;48.824;9.346;2023-07-24T00:02:39;8.60;;;7.00;;
1613;SDS011;800;48.824;9.346;2023-07-24T00:05:05;9.53;;;7.70;;
1613;SDS011;800;48.824;9.346;2023-07-24T00:07:31;8.77;;;7.40;;
1613;SDS011;800;48.824;9.346;2023-07-24T00:09:56;9.10;;;7.80;;
1613;SDS011;800;48.824;9.346;2023-07-24T00:12:22;11.07;;;7.20;;
1613;SDS011;800;48.824;9.346;2023-07-24T00:14:48;7.93;;;7.00;;
1613;SDS011;800;48.824;9.346;2023-07-24T00:17:13;7.70;;;6.10;;
1613;SDS011;800;48.824;9.346;2023-07-24T00:19:39;11.07;;;7.23;;
1613;SDS011;800;48.824;9.346;2023-07-24T00:22:04;9.00;;;6.90;;
1613;SDS011;800;48.824;9.346;2023-07-24T00:24:31;8.27;;;6.93;;
1613;SDS011;800;48.824;9.346;2023-07-24T00:26:57;10.33;;;6.20;;
1613;SDS011;800;48.824;9.346;2023-07-24T00:29:23;8.27;;;6.63;;
1613;SDS011;800;48.824;9.346;2023-07-24T00:31:48;11.43;;;7.07;;
1613;SDS011;800;48.824;9.346;2023-07-24T00:34:14;9.90;;;7.63;;
1613;SDS011;800;48.824;9.346;2023-07-24T00:36:40;11.00;;;7.03;;
1613;SDS011;800;48.824;9.346;2023-07-24T00:39:05;9.80;;;7.73;;
1613;SDS011;800;48.824;9.346;2023-07-24T00:41:31;11.17;;;8.30;;
1613;SDS011;800;48.824;9.346;2023-07-24T00:43:57;10.33;;;7.67;;
1613;SDS011;800;48.824;9.346;2023-07-24T00:46:23;9.30;;;8.20;;
1613;SDS011;800;48.824;9.346;2023-07-24T00:48:49;8.87;;;7.23;;
1613;SDS011;800;48.824;9.346;2023-07-24T00:51:16;9.50;;;7.40;;
1613;SDS011;800;48.824;9.346;2023-07-24T00:53:42;8.90;;;7.57;;
1613;SDS011;800;48.824;9.346;2023-07-24T00:56:07;11.60;;;7.40;;
1613;SDS011;800;48.824;9.346;2023-07-24T00:58:35;8.70;;;6.93;;
1613;SDS011;800;48.824;9.346;2023-07-24T01:01:03;11.30;;;8.13;;
1613;SDS011;800;48.824;9.346;2023-07-24T01:03:32;9.07;;;7.80;;
1613;SDS011;800;48.824;9.346;2023-07-24T01:06:02;11.33;;;8.47;;
1613;SDS011;800;48.824;9.346;2023-07-24T01:08:28;9.50;;;7.57;;
1613;SDS011;800;48.824;9.346;2023-07-24T01:10:55;9.30;;;7.57;;
1613;SDS011;800;48.824;9.346;2023-07-24T01:13:24;7.47;;;6.60;;
1613;SDS011;800;48.824;9.346;2023-07-24T01:16:00;8.50;;;7.60;;
1613;SDS011;800;48.824;9.346;2023-07-24T01:18:32;7.27;;;6.47;;
1613;SDS011;800;48.824;9.346;2023-07-24T01:21:01;11.13;;;6.30;;
1613;SDS011;800;48.824;9.346;2023-07-24T01:26:15;9.77;;;7.33;;
1613;SDS011;800;48.824;9.346;2023-07-24T01:28:42;10.20;;;7.37;;
1613;SDS011;800;48.824;9.346;2023-07-24T01:31:07;8.30;;;6.77;;
1613;SDS011;800;48.824;9.346;2023-07-24T01:33:33;8.70;;;7.80;;
1613;SDS011;800;48.824;9.346;2023-07-24T01:36:00;8.67;;;7.27;;
1613;SDS011;800;48.824;9.346;2023-07-24T01:38:27;7.13;;;6.37;;
1613;SDS011;800;48.824;9.346;2023-07-24T01:40:55;10.20;;;7.40;;
1613;SDS011;800;48.824;9.346;2023-07-24T01:43:21;8.30;;;6.90;;
1613;SDS011;800;48.824;9.346;2023-07-24T01:45:47;8.57;;;7.03;;
1613;SDS011;800;48.824;9.346;2023-07-24T01:48:13;9.90;;;7.43;;
1613;SDS011;800;48.824;9.346;2023-07-24T01:50:39;9.73;;;7.27;;
1613;SDS011;800;48.824;9.346;2023-07-24T01:53:04;10.43;;;8.33;;
1613;SDS011;800;48.824;9.346;2023-07-24T01:55:30;8.73;;;7.43;;
1613;SDS011;800;48.824;9.346;2023-07-24T01:57:55;7.97;;;6.97;;
1613;SDS011;800;48.824;9.346;2023-07-24T02:00:21;11.70;;;7.40;;
1613;SDS011;800;48.824;9.346;2023-07-24T02:02:47;9.43;;;7.47;;
1613;SDS011;800;48.824;9.346;2023-07-24T02:05:12;9.50;;;8.07;;
1613;SDS011;800;48.824;9.346;2023-07-24T02:07:38;9.10;;;7.50;;
1613;SDS011;800;48.824;9.346;2023-07-24T02:10:03;9.10;;;7.13;;
1613;SDS011;800;48.824;9.346;2023-07-24T02:12:29;9.83;;;7.77;;
1613;SDS011;800;48.824;9.346;2023-07-24T02:14:55;11.37;;;7.70;;
1613;SDS011;800;48.824;9.346;2023-07-24T02:17:22;11.33;;;7.90;;
1613;SDS011;800;48.824;9.346;2023-07-24T02:19:48;10.80;;;7.37;;
1613;SDS011;800;48.824;9.346;2023-07-24T02:22:14;9.07;;;7.27;;
1613;SDS011;800;48.824;9.346;2023-07-24T02:24:40;6.80;;;6.10;;
1613;SDS011;800;48.824;9.346;2023-07-24T02:27:06;10.27;;;7.67;;
1613;SDS011;800;48.824;9.346;2023-07-24T02:29:32;7.73;;;6.90;;
1613;SDS011;800;48.824;9.346;2023-07-24T02:31:58;9.47;;;7.57;;
1613;SDS011;800;48.824;9.346;2023-07-24T02:34:24;9.83;;;6.67;;
1613;SDS011;800;48.824;9.346;2023-07-24T02:36:51;8.30;;;7.00;;
1613;SDS011;800;48.824;9.346;2023-07-24T02:39:18;9.43;;;7.10;;
1613;SDS011;800;48.824;9.346;2023-07-24T02:41:44;10.23;;;7.77;;
1613;SDS011;800;48.824;9.346;2023-07-24T02:44:10;7.40;;;6.60;;
1613;SDS011;800;48.824;9.346;2023-07-24T02:46:36;10.60;;;8.03;;
1613;SDS011;800;48.824;9.346;2023-07-24T02:49:01;11.43;;;7.80;;
1613;SDS011;800;48.824;9.346;2023-07-24T02:51:27;10.80;;;8.17;;
1613;SDS011;800;48.824;9.346;2023-07-24T02:53:53;8.90;;;7.57;;
1613;SDS011;800;48.824;9.346;2023-07-24T02:56:19;8.67;;;6.67;;
1613;SDS011;800;48.824;9.346;2023-07-24T02:58:45;9.40;;;7.90;;
1613;SDS011;800;48.824;9.346;2023-07-24T03:01:11;8.60;;;7.07;;
1613;SDS011;800;48.824;9.346;2023-07-24T03:03:39;8.80;;;7.30;;
1613;SDS011;800;48.824;9.346;2023-07-24T03:06:05;8.17;;;7.33;;
1613;SDS011;800;48.824;9.346;2023-07-24T03:08:30;9.60;;;6.93;;
1613;SDS011;800;48.824;9.346;2023-07-24T03:10:56;9.37;;;7.80;;
1613;SDS011;800;48.824;9.346;2023-07-24T03:13:22;10.67;;;8.23;;
1613;SDS011;800;48.824;9.346;2023-07-24T03:15:55;9.27;;;7.57;;
1613;SDS011;800;48.824;9.346;2023-07-24T03:18:21;8.57;;;7.50;;
1613;SDS011;800;48.824;9.346;2023-07-24T03:20:47;11.67;;;7.90;;
1613;SDS011;800;48.824;9.346;2023-07-24T03:23:12;8.43;;;6.87;;
1613;SDS011;800;48.824;9.346;2023-07-24T03:25:38;7.87;;;6.17;;
1613;SDS011;800;48.824;9.346;2023-07-24T03:28:04;10.53;;;8.40;;
1613;SDS011;800;48.824;9.346;2023-07-24T03:30:29;8.70;;;7.30;;
1613;SDS011;800;48.824;9.346;2023-07-24T03:32:55;8.63;;;7.37;;
1613;SDS011;800;48.824;9.346;2023-07-24T03:35:20;10.37;;;7.63;;
1613;SDS011;800;48.824;9.346;2023-07-24T03:37:46;10.83;;;7.93;;
1613;SDS011;800;48.824;9.346;2023-07-24T03:40:12;9.60;;;7.60;;
1613;SDS011;800;48.824;9.346;2023-07-24T03:42:37;7.80;;;6.93;;
1613;SDS011;800;48.824;9.346;2023-07-24T03:45:03;10.20;;;7.60;;
1613;SDS011;800;48.824;9.346;2023-07-24T03:47:29;8.67;;;7.07;;
1613;SDS011;800;48.824;9.346;2023-07-24T03:49:54;10.93;;;8.00;;
1613;SDS011;800;48.824;9.346;2023-07-24T03:52:20;8.80;;;6.90;;
1613;SDS011;800;48.824;9.346;2023-07-24T03:54:46;9.40;;;7.30;;
1613;SDS011;800;48.824;9.346;2023-07-24T03:57:11;9.07;;;7.30;;
1613;SDS011;800;48.824;9.346;2023-07-24T03:59:37;9.20;;;7.07;;
1613;SDS011;800;48.824;9.346;2023-07-24T04:02:02;8.90;;;8.00;;
1613;SDS011;800;48.824;9.346;2023-07-24T04:04:28;8.53;;;6.83;;
1613;SDS011;800;48.824;9.346;2023-07-24T04:06:54;10.70;;;7.67;;
1613;SDS011;800;48.824;9.346;2023-07-24T04:09:20;9.33;;;7.20;;
1613;SDS011;800;48.824;9.346;2023-07-24T04:11:45;10.63;;;7.87;;
1613;SDS011;800;48.824;9.346;2023-07-24T04:14:11;9.80;;;7.60;;
1613;SDS011;800;48.824;9.346;2023-07-24T04:16:36;8.30;;;7.00;;
1613;SDS011;800;48.824;9.346;2023-07-24T04:19:02;8.60;;;7.20;;
1613;SDS011;800;48.824;9.346;2023-07-24T04:21:28;11.27;;;8.50;;
1613;SDS011;800;48.824;9.346;2023-07-24T04:23:54;9.97;;;7.70;;
1613;SDS011;800;48.824;9.346;2023-07-24T04:26:19;10.83;;;7.37;;
1613;SDS011;800;48.824;9.346;2023-07-24T04:28:45;8.10;;;7.30;;
1613;SDS011;800;48.824;9.346;2023-07-24T04:31:11;11.43;;;8.30;;
1613;SDS011;800;48.824;9.346;2023-07-24T04:33:36;7.10;;;6.30;;
1613;SDS011;800;48.824;9.346;2023-07-24T04:36:02;9.53;;;7.80;;
1613;SDS011;800;48.824;9.346;2023-07-24T04:38:28;7.97;;;6.87;;
1613;SDS011;800;48.824;9.346;2023-07-24T04:40:53;8.60;;;7.67;;
1613;SDS011;800;48.824;9.346;2023-07-24T04:43:19;9.30;;;7.60;;
1613;SDS011;800;48.824;9.346;2023-07-24T04:45:44;8.57;;;7.27;;
1613;SDS011;800;48.824;9.346;2023-07-24T04:48:10;8.83;;;7.23;;
1613;SDS011;800;48.824;9.346;2023-07-24T04:50:36;9.30;;;8.00;;
1613;SDS011;800;48.824;9.346;2023-07-24T04:53:01;8.90;;;7.60;;
1613;SDS011;800;48.824;9.346;2023-07-24T04:55:27;10.80;;;8.83;;
1613;SDS011;800;48.824;9.346;2023-07-24T04:57:52;10.40;;;9.00;;
1613;SDS011;800;48.824;9.346;2023-07-24T05:00:18;12.20;;;8.10;;
1613;SDS011;800;48.824;9.346;2023-07-24T05:02:44;11.07;;;8.03;;
1613;SDS011;800;48.824;9.346;2023-07-24T05:05:09;11.03;;;8.50;;
1613;SDS011;800;48.824;9.346;2023-07-24T05:07:35;11.10;;;7.43;;
1613;SDS011;800;48.824;9.346;2023-07-24T05:10:00;11.10;;;8.57;;
1613;SDS011;800;48.824;9.346;2023-07-24T05:12:26;9.37;;;8.07;;
1613;SDS011;800;48.824;9.346;2023-07-24T05:14:52;10.70;;;8.30;;
1613;SDS011;800;48.824;9.346;2023-07-24T05:17:17;8.20;;;7.37;;
1613;SDS011;800;48.824;9.346;2023-07-24T05:19:43;9.33;;;7.40;;
1613;SDS011;800;48.824;9.346;2023-07-24T05:22:08;8.90;;;7.30;;
1613;SDS011;800;48.824;9.346;2023-07-24T05:24:35;9.80;;;7.80;;
1613;SDS011;800;48.824;9.346;2023-07-24T05:27:02;10.10;;;7.57;;
1613;SDS011;800;48.824;9.346;2023-07-24T05:29:29;8.67;;;7.20;;
1613;SDS011;800;48.824;9.346;2023-07-24T05:31:54;9.67;;;7.83;;
1613;SDS011;800;48.824;9.346;2023-07-24T05:34:20;9.90;;;7.83;;
1613;SDS011;800;48.824;9.346;2023-07-24T05:36:45;11.33;;;8.50;;
1613;SDS011;800;48.824;9.346;2023-07-24T05:39:11;9.63;;;8.10;;
1613;SDS011;800;48.824;9.346;2023-07-24T05:41:37;10.23;;;8.47;;
1613;SDS011;800;48.824;9.346;2023-07-24T05:44:02;11.40;;;8.80;;
1613;SDS011;800;48.824;9.346;2023-07-24T05:46:28;9.53;;;7.87;;
1613;SDS011;800;48.824;9.346;2023-07-24T05:48:53;9.43;;;8.43;;
1613;SDS011;800;48.824;9.346;2023-07-24T05:51:19;10.77;;;8.07;;
1613;SDS011;800;48.824;9.346;2023-07-24T05:53:45;13.03;;;8.23;;
1613;SDS011;800;48.824;9.346;2023-07-24T05:56:10;11.77;;;7.93;;
1613;SDS011;800;48.824;9.346;2023-07-24T05:58:36;10.27;;;7.70;;
1613;SDS011;800;48.824;9.346;2023-07-24T06:01:01;12.00;;;7.80;;
1613;SDS011;800;48.824;9.346;2023-07-24T06:03:27;11.17;;;8.90;;
1613;SDS011;800;48.824;9.346;2023-07-24T06:05:53;12.90;;;9.07;;
1613;SDS011;800;48.824;9.346;2023-07-24T06:08:19;8.60;;;7.63;;
1613;SDS011;800;48.824;9.346;2023-07-24T06:10:46;12.60;;;8.73;;
1613;SDS011;800;48.824;9.346;2023-07-24T06:13:13;11.20;;;7.87;;
1613;SDS011;800;48.824;9.346;2023-07-24T06:15:40;10.23;;;7.83;;
1613;SDS011;800;48.824;9.346;2023-07-24T06:18:06;10.30;;;8.27;;
1613;SDS011;800;48.824;9.346;2023-07-24T06:20:31;11.60;;;8.27;;
1613;SDS011;800;48.824;9.346;2023-07-24T06:22:57;9.27;;;7.30;;
1613;SDS011;800;48.824;9.346;2023-07-24T06:25:22;12.20;;;8.00;;
1613;SDS011;800;48.824;9.346;2023-07-24T06:27:48;10.03;;;7.23;;
1613;SDS011;800;48.824;9.346;2023-07-24T06:30:13;11.47;;;7.77;;
1613;SDS011;800;48.824;9.346;2023-07-24T06:32:39;12.50;;;9.10;;
1613;SDS011;800;48.824;9.346;2023-07-24T06:35:05;9.27;;;7.93;;
1613;SDS011;800;48.824;9.346;2023-07-24T06:37:30;10.10;;;7.50;;
1613;SDS011;800;48.824;9.346;2023-07-24T06:39:56;10.10;;;8.20;;
1613;SDS011;800;48.824;9.346;2023-07-24T06:42:22;8.47;;;7.20;;
1613;SDS011;800;48.824;9.346;2023-07-24T06:44:47;8.63;;;7.67;;
1613;SDS011;800;48.824;9.346;2023-07-24T06:47:13;10.80;;;8.07;;
1613;SDS011;800;48.824;9.346;2023-07-24T06:49:38;12.27;;;8.30;;
1613;SDS011;800;48.824;9.346;2023-07-24T06:52:04;11.33;;;8.57;;
1613;SDS011;800;48.824;9.346;2023-07-24T06:54:30;12.13;;;8.90;;
1613;SDS011;800;48.824;9.346;2023-07-24T06:56:55;10.07;;;7.77;;
1613;SDS011;800;48.824;9.346;2023-07-24T06:59:21;9.00;;;7.77;;
1613;SDS011;800;48.824;9.346;2023-07-24T07:01:46;17.23;;;14.10;;
1613;SDS011;800;48.824;9.346;2023-07-24T07:04:12;9.10;;;8.10;;
1613;SDS011;800;48.824;9.346;2023-07-24T07:06:37;15.53;;;8.30;;
1613;SDS011;800;48.824;9.346;2023-07-24T07:09:03;10.73;;;8.10;;
1613;SDS011;800;48.824;9.346;2023-07-24T07:11:29;9.80;;;8.30;;
1613;SDS011;800;48.824;9.346;2023-07-24T07:13:55;12.33;;;9.10;;
1613;SDS011;800;48.824;9.346;2023-07-24T07:16:20;11.60;;;8.57;;
1613;SDS011;800;48.824;9.346;2023-07-24T07:18:46;11.93;;;8.47;;
1613;SDS011;800;48.824;9.346;2023-07-24T07:21:12;8.67;;;7.73;;
1613;SDS011;800;48.824;9.346;2023-07-24T07:23:37;10.63;;;7.80;;
1613;SDS011;800;48.824;9.346;2023-07-24T07:26:03;9.43;;;8.10;;
1613;SDS011;800;48.824;9.346;2023-07-24T07:28:28;9.30;;;7.60;;
1613;SDS011;800;48.824;9.346;2023-07-24T07:30:54;10.23;;;7.43;;
1613;SDS011;800;48.824;9.346;2023-07-24T07:33:20;12.93;;;8.63;;
1613;SDS011;800;48.824;9.346;2023-07-24T07:35:49;11.03;;;8.17;;
1613;SDS011;800;48.824;9.346;2023-07-24T07:38:15;12.30;;;8.33;;
1613;SDS011;800;48.824;9.346;2023-07-24T07:40:40;9.43;;;7.70;;
1613;SDS011;800;48.824;9.346;2023-07-24T07:43:06;10.53;;;8.90;;
1613;SDS011;800;48.824;9.346;2023-07-24T07:45:32;9.53;;;8.47;;
1613;SDS011;800;48.824;9.346;2023-07-24T07:47:57;11.03;;;9.17;;
1613;SDS011;800;48.824;9.346;2023-07-24T07:50:23;9.23;;;8.20;;
1613;SDS011;800;48.824;9.346;2023-07-24T07:52:49;18.63;;;9.30;;
1613;SDS011;800;48.824;9.346;2023-07-24T07:55:16;10.83;;;8.60;;
1613;SDS011;800;48.824;9.346;2023-07-24T07:57:42;10.30;;;9.13;;
1613;SDS011;800;48.824;9.346;2023-07-24T08:00:07;10.40;;;7.60;;
1613;SDS011;800;48.824;9.346;2023-07-24T08:02:33;10.77;;;8.97;;
1613;SDS011;800;48.824;9.346;2023-07-24T08:04:59;10.07;;;7.97;;
1613;SDS011;800;48.824;9.346;2023-07-24T08:07:25;10.73;;;9.13;;
1613;SDS011;800;48.824;9.346;2023-07-24T08:09:50;12.50;;;9.10;;
1613;SDS011;800;48.824;9.346;2023-07-24T08:12:16;10.70;;;8.30;;
1613;SDS011;800;48.824;9.346;2023-07-24T08:14:41;12.50;;;8.43;;
1613;SDS011;800;48.824;9.346;2023-07-24T08:17:07;11.60;;;7.80;;
1613;SDS011;800;48.824;9.346;2023-07-24T08:19:33;9.80;;;7.83;;
1613;SDS011;800;48.824;9.346;2023-07-24T08:21:59;11.80;;;7.77;;
1613;SDS011;800;48.824;9.346;2023-07-24T08:24:24;12.00;;;8.87;;
1613;SDS011;800;48.824;9.346;2023-07-24T08:26:50;11.40;;;8.13;;
1613;SDS011;800;48.824;9.346;2023-07-24T08:29:15;9.07;;;7.83;;
1613;SDS011;800;48.824;9.346;2023-07-24T08:31:41;12.57;;;9.50;;
1613;SDS011;800;48.824;9.346;2023-07-24T08:34:06;11.90;;;9.27;;
1613;SDS011;800;48.824;9.346;2023-07-24T08:36:32;13.43;;;9.47;;
1613;SDS011;800;48.824;9.346;2023-07-24T08:38:57;10.33;;;8.87;;
1613;SDS011;800;48.824;9.346;2023-07-24T08:41:23;13.40;;;9.97;;
1613;SDS011;800;48.824;9.346;2023-07-24T08:43:49;10.50;;;8.87;;
1613;SDS011;800;48.824;9.346;2023-07-24T08:46:16;12.20;;;9.33;;
1613;SDS011;800;48.824;9.346;2023-07-24T08:48:43;12.40;;;9.83;;
1613;SDS011;800;48.824;9.346;2023-07-24T08:51:12;15.00;;;9.23;;
1613;SDS011;800;48.824;9.346;2023-07-24T08:53:41;13.07;;;8.90;;
1613;SDS011;800;48.824;9.346;2023-07-24T08:56:08;14.73;;;9.13;;
1613;SDS011;800;48.824;9.346;2023-07-24T08:58:35;10.00;;;8.90;;
1613;SDS011;800;48.824;9.346;2023-07-24T09:01:02;13.83;;;9.10;;
1613;SDS011;800;48.824;9.346;2023-07-24T09:03:29;10.63;;;9.33;;
1613;SDS011;800;48.824;9.346;2023-07-24T09:05:55;12.47;;;8.00;;
1613;SDS011;800;48.824;9.346;2023-07-24T09:08:31;11.80;;;8.93;;
1613;SDS011;800;48.824;9.346;2023-07-24T09:11:01;15.83;;;9.60;;
1613;SDS011;800;48.824;9.346;2023-07-24T09:13:28;12.00;;;9.10;;
1613;SDS011;800;48.824;9.346;2023-07-24T09:15:54;10.57;;;8.33;;
1613;SDS011;800;48.824;9.346;2023-07-24T09:18:20;11.27;;;8.93;;
1613;SDS011;800;48.824;9.346;2023-07-24T09:20:46;10.10;;;8.73;;
1613;SDS011;800;48.824;9.346;2023-07-24T09:23:12;10.63;;;8.37;;
1613;SDS011;800;48.824;9.346;2023-07-24T09:25:40;8.70;;;7.80;;
1613;SDS011;800;48.824;9.346;2023-07-24T09:28:14;8.60;;;7.50;;
1613;SDS011;800;48.824;9.346;2023-07-24T09:30:52;8.00;;;7.20;;
1613;SDS011;800;48.824;9.346;2023-07-24T09:33:19;9.63;;;7.50;;
1613;SDS011;800;48.824;9.346;2023-07-24T09:35:56;8.70;;;7.70;;
1613;SDS011;800;48.824;9.346;2023-07-24T09:38:22;14.27;;;8.50;;
1613;SDS011;800;48.824;9.346;2023-07-24T09:40:48;7.80;;;6.70;;
1613;SDS011;800;48.824;9.346;2023-07-24T09:43:22;8.40;;;7.50;;
1613;SDS011;800;48.824;9.346;2023-07-24T09:45:49;7.70;;;6.93;;
1613;SDS011;800;48.824;9.346;2023-07-24T09:48:16;8.70;;;7.10;;
1613;SDS011;800;48.824;9.346;2023-07-24T09:50:44;7.53;;;6.73;;
1613;SDS011;800;48.824;9.346;2023-07-24T09:56:01;7.03;;;6.33;;
1613;SDS011;800;48.824;9.346;2023-07-24T09:58:29;7.03;;;6.33;;
1613;SDS011;800;48.824;9.346;2023-07-24T10:01:00;10.30;;;7.90;;
1613;SDS011;800;48.824;9.346;2023-07-24T10:03:39;8.17;;;6.23;;
1613;SDS011;800;48.824;9.346;2023-07-24T10:06:06;8.70;;;7.60;;
1613;SDS011;800;48.824;9.346;2023-07-24T10:08:37;8.70;;;6.40;;
1613;SDS011;800;48.824;9.346;2023-07-24T10:11:04;10.80;;;7.07;;
1613;SDS011;800;48.824;9.346;2023-07-24T10:13:30;7.40;;;6.67;;
1613;SDS011;800;48.824;9.346;2023-07-24T10:15:56;8.20;;;6.50;;
1613;SDS011;800;48.824;9.346;2023-07-24T10:18:26;7.70;;;6.60;;
1613;SDS011;800;48.824;9.346;2023-07-24T10:21:03;10.90;;;6.90;;
1613;SDS011;800;48.824;9.346;2023-07-24T10:23:30;10.20;;;7.43;;
1613;SDS011;800;48.824;9.346;2023-07-24T10:26:02;9.13;;;7.27;;
1613;SDS011;800;48.824;9.346;2023-07-24T10:28:34;9.80;;;7.33;;
1613;SDS011;800;48.824;9.346;2023-07-24T10:31:04;7.60;;;6.70;;
1613;SDS011;800;48.824;9.346;2023-07-24T10:33:34;9.63;;;7.97;;
1613;SDS011;800;48.824;9.346;2023-07-24T10:36:06;8.60;;;7.60;;
1613;SDS011;800;48.824;9.346;2023-07-24T10:38:38;7.83;;;6.80;;
1613;SDS011;800;48.824;9.346;2023-07-24T10:41:06;8.23;;;7.30;;
1613;SDS011;800;48.824;9.346;2023-07-24T10:43:44;8.60;;;7.43;;
1613;SDS011;800;48.824;9.346;2023-07-24T10:46:15;10.37;;;8.03;;
1613;SDS011;800;48.824;9.346;2023-07-24T10:48:46;8.27;;;6.87;;
1613;SDS011;800;48.824;9.346;2023-07-24T10:51:13;10.83;;;7.63;;
1613;SDS011;800;48.824;9.346;2023-07-24T10:53:44;9.83;;;7.23;;
1613;SDS011;800;48.824;9.346;2023-07-24T10:56:11;8.80;;;7.43;;
1613;SDS011;800;48.824;9.346;2023-07-24T10:58:37;8.70;;;7.20;;
1613;SDS011;800;48.824;9.346;2023-07-24T11:01:03;8.17;;;7.17;;
1613;SDS011;800;48.824;9.346;2023-07-24T11:03:30;10.53;;;8.30;;
1613;SDS011;800;48.824;9.346;2023-07-24T11:05:56;10.67;;;7.30;;
1613;SDS011;800;48.824;9.346;2023-07-24T11:08:23;10.80;;;8.83;;
1613;SDS011;800;48.824;9.346;2023-07-24T11:10:52;13.23;;;7.73;;
1613;SDS011;800;48.824;9.346;2023-07-24T11:13:21;12.07;;;8.23;;
1613;SDS011;800;48.824;9.346;2023-07-24T11:15:48;11.20;;;7.50;;
1613;SDS011;800;48.824;9.346;2023-07-24T11:18:15;12.40;;;8.37;;
1613;SDS011;800;48.824;9.346;2023-07-24T11:20:45;10.83;;;7.87;;
1613;SDS011;800;48.824;9.346;2023-07-24T11:23:12;9.80;;;8.30;;
1613;SDS011;800;48.824;9.346;2023-07-24T11:25:39;8.00;;;6.27;;
1613;SDS011;800;48.824;9.346;2023-07-24T11:28:05;9.27;;;6.97;;
1613;SDS011;800;48.824;9.346;2023-07-24T11:30:32;8.57;;;6.93;;
1613;SDS011;800;48.824;9.346;2023-07-24T11:32:59;7.97;;;6.97;;
1613;SDS011;800;48.824;9.346;2023-07-24T11:35:26;8.50;;;7.23;;
1613;SDS011;800;48.824;9.346;2023-07-24T11:37:52;8.43;;;6.53;;
1613;SDS011;800;48.824;9.346;2023-07-24T11:40:18;11.37;;;7.23;;
1613;SDS011;800;48.824;9.346;2023-07-24T11:42:46;8.37;;;6.53;;
1613;SDS011;800;48.824;9.346;2023-07-24T11:45:13;7.43;;;6.57;;
1613;SDS011;800;48.824;9.346;2023-07-24T11:47:43;9.70;;;7.27;;
1613;SDS011;800;48.824;9.346;2023-07-24T11:50:10;10.63;;;7.70;;
1613;SDS011;800;48.824;9.346;2023-07-24T11:55:09;8.00;;;6.80;;
1613;SDS011;800;48.824;9.346;2023-07-24T11:57:38;8.17;;;6.73;;
1613;SDS011;800;48.824;9.346;2023-07-24T12:00:05;7.77;;;6.50;;
1613;SDS011;800;48.824;9.346;2023-07-24T12:02:42;7.60;;;6.47;;
1613;SDS011;800;48.824;9.346;2023-07-24T12:05:09;8.00;;;7.10;;
1613;SDS011;800;48.824;9.346;2023-07-24T12:07:35;8.40;;;6.37;;
1613;SDS011;800;48.824;9.346;2023-07-24T12:10:02;6.90;;;6.10;;
1613;SDS011;800;48.824;9.346;2023-07-24T12:12:47;6.80;;;6.10;;
1613;SDS011;800;48.824;9.346;2023-07-24T12:15:13;7.40;;;5.70;;
1613;SDS011;800;48.824;9.346;2023-07-24T12:17:39;9.30;;;6.37;;
1613;SDS011;800;48.824;9.346;2023-07-24T12:20:06;8.13;;;6.87;;
1613;SDS011;800;48.824;9.346;2023-07-24T12:22:36;7.50;;;6.70;;
1613;SDS011;800;48.824;9.346;2023-07-24T12:25:03;8.47;;;6.30;;
1613;SDS011;800;48.824;9.346;2023-07-24T12:27:30;8.40;;;6.53;;
1613;SDS011;800;48.824;9.346;2023-07-24T12:29:56;7.50;;;6.70;;
1613;SDS011;800;48.824;9.346;2023-07-24T12:32:22;8.30;;;7.30;;
1613;SDS011;800;48.824;9.346;2023-07-24T12:34:48;8.87;;;6.70;;
1613;SDS011;800;48.824;9.346;2023-07-24T12:37:15;8.40;;;6.93;;
1613;SDS011;800;48.824;9.346;2023-07-24T12:39:41;7.87;;;6.20;;
1613;SDS011;800;48.824;9.346;2023-07-24T12:42:06;7.83;;;7.00;;
1613;SDS011;800;48.824;9.346;2023-07-24T12:44:32;7.87;;;7.07;;
1613;SDS011;800;48.824;9.346;2023-07-24T12:46:58;7.93;;;7.00;;
1613;SDS011;800;48.824;9.346;2023-07-24T12:49:24;10.17;;;7.27;;
1613;SDS011;800;48.824;9.346;2023-07-24T12:51:49;6.90;;;6.30;;
1613;SDS011;800;48.824;9.346;2023-07-24T12:54:15;7.70;;;6.90;;
1613;SDS011;800;48.824;9.346;2023-07-24T12:56:42;9.30;;;7.03;;
1613;SDS011;800;48.824;9.346;2023-07-24T12:59:07;11.40;;;7.30;;
1613;SDS011;800;48.824;9.346;2023-07-24T13:01:33;7.13;;;6.30;;
1613;SDS011;800;48.824;9.346;2023-07-24T13:03:58;8.37;;;7.00;;
1613;SDS011;800;48.824;9.346;2023-07-24T13:06:24;8.00;;;7.07;;
1613;SDS011;800;48.824;9.346;2023-07-24T13:08:50;8.27;;;6.87;;
1613;SDS011;800;48.824;9.346;2023-07-24T13:11:15;6.83;;;6.13;;
1613;SDS011;800;48.824;9.346;2023-07-24T13:13:41;8.70;;;6.50;;
1613;SDS011;800;48.824;9.346;2023-07-24T13:16:07;7.40;;;6.63;;
1613;SDS011;800;48.824;9.346;2023-07-24T13:18:32;6.80;;;6.10;;
1613;SDS011;800;48.824;9.346;2023-07-24T13:20:58;7.57;;;6.83;;
1613;SDS011;800;48.824;9.346;2023-07-24T13:23:24;9.90;;;6.53;;
1613;SDS011;800;48.824;9.346;2023-07-24T13:25:51;9.00;;;7.37;;
1613;SDS011;800;48.824;9.346;2023-07-24T13:28:17;7.53;;;6.80;;
1613;SDS011;800;48.824;9.346;2023-07-24T13:30:43;6.93;;;6.10;;
1613;SDS011;800;48.824;9.346;2023-07-24T13:33:08;6.93;;;6.13;;
1613;SDS011;800;48.824;9.346;2023-07-24T13:35:34;7.43;;;6.60;;
1613;SDS011;800;48.824;9.346;2023-07-24T13:38:00;12.67;;;7.20;;
1613;SDS011;800;48.824;9.346;2023-07-24T13:40:25;7.07;;;6.37;;
1613;SDS011;800;48.824;9.346;2023-07-24T13:42:51;8.13;;;7.33;;
1613;SDS011;800;48.824;9.346;2023-07-24T13:45:17;7.40;;;6.57;;
1613;SDS011;800;48.824;9.346;2023-07-24T13:47:42;8.37;;;6.67;;
1613;SDS011;800;48.824;9.346;2023-07-24T13:50:08;8.80;;;6.13;;
1613;SDS011;800;48.824;9.346;2023-07-24T13:52:34;6.90;;;6.20;;
1613;SDS011;800;48.824;9.346;2023-07-24T13:54:59;7.20;;;6.50;;
1613;SDS011;800;48.824;9.346;2023-07-24T13:57:25;6.90;;;5.60;;
1613;SDS011;800;48.824;9.346;2023-07-24T13:59:51;6.30;;;5.70;;
1613;SDS011;800;48.824;9.346;2023-07-24T14:02:17;6.20;;;5.60;;
1613;SDS011;800;48.824;9.346;2023-07-24T14:04:43;7.13;;;6.37;;
1613;SDS011;800;48.824;9.346;2023-07-24T14:07:09;6.70;;;5.93;;
1613;SDS011;800;48.824;9.346;2023-07-24T14:09:35;7.73;;;5.93;;
1613;SDS011;800;48.824;9.346;2023-07-24T14:12:00;5.90;;;5.23;;
1613;SDS011;800;48.824;9.346;2023-07-24T14:14:26;6.67;;;6.07;;
1613;SDS011;800;48.824;9.346;2023-07-24T14:16:51;6.40;;;5.20;;
1613;SDS011;800;48.824;9.346;2023-07-24T14:19:17;6.67;;;5.07;;
1613;SDS011;800;48.824;9.346;2023-07-24T14:21:44;6.17;;;5.20;;
1613;SDS011;800;48.824;9.346;2023-07-24T14:24:10;5.63;;;5.13;;
1613;SDS011;800;48.824;9.346;2023-07-24T14:26:35;5.67;;;5.03;;
1613;SDS011;800;48.824;9.346;2023-07-24T14:29:04;7.23;;;5.30;;
1613;SDS011;800;48.824;9.346;2023-07-24T14:31:29;5.47;;;4.90;;
1613;SDS011;800;48.824;9.346;2023-07-24T14:33:55;5.20;;;4.80;;
1613;SDS011;800;48.824;9.346;2023-07-24T14:36:21;5.83;;;5.23;;
1613;SDS011;800;48.824;9.346;2023-07-24T14:38:46;5.37;;;4.87;;
1613;SDS011;800;48.824;9.346;2023-07-24T14:41:12;5.00;;;4.30;;
1613;SDS011;800;48.824;9.346;2023-07-24T14:43:39;5.50;;;5.00;;
1613;SDS011;800;48.824;9.346;2023-07-24T14:46:05;5.67;;;5.03;;
1613;SDS011;800;48.824;9.346;2023-07-24T14:48:30;4.77;;;4.30;;
1613;SDS011;800;48.824;9.346;2023-07-24T14:50:56;4.87;;;4.37;;
1613;SDS011;800;48.824;9.346;2023-07-24T14:53:22;5.13;;;4.60;;
1613;SDS011;800;48.824;9.346;2023-07-24T14:55:47;4.90;;;4.40;;
1613;SDS011;800;48.824;9.346;2023-07-24T14:58:13;6.03;;;5.07;;
1613;SDS011;800;48.824;9.346;2023-07-24T15:00:38;6.07;;;4.50;;
1613;SDS011;800;48.824;9.346;2023-07-24T15:03:04;4.40;;;4.00;;
1613;SDS011;800;48.824;9.346;2023-07-24T15:05:29;4.80;;;4.30;;
1613;SDS011;800;48.824;9.346;2023-07-24T15:07:55;4.97;;;4.53;;
1613;SDS011;800;48.824;9.346;2023-07-24T15:10:21;4.70;;;4.27;;
1613;SDS011;800;48.824;9.346;2023-07-24T15:12:46;5.33;;;4.57;;
1613;SDS011;800;48.824;9.346;2023-07-24T15:15:12;6.10;;;4.13;;
1613;SDS011;800;48.824;9.346;2023-07-24T15:17:37;4.50;;;4.10;;
1613;SDS011;800;48.824;9.346;2023-07-24T15:20:03;4.40;;;4.00;;
1613;SDS011;800;48.824;9.346;2023-07-24T15:22:30;4.53;;;4.10;;
1613;SDS011;800;48.824;9.346;2023-07-24T15:24:56;5.00;;;4.50;;
1613;SDS011;800;48.824;9.346;2023-07-24T15:27:21;4.60;;;4.20;;